createdAt,value
2019-04-29T00:00:13.179Z,11.90
2019-04-29T00:02:41.791Z,11.90
2019-04-29T00:05:11.445Z,11.90
2019-04-29T00:07:40.118Z,12.00
2019-04-29T00:10:10.852Z,12.00
2019-04-29T00:12:40.059Z,12.10
2019-04-29T00:15:10.683Z,11.90
2019-04-29T00:17:40.947Z,12.00
2019-04-29T00:20:27.862Z,12.20
2019-04-29T00:22:57.517Z,12.30
2019-04-29T00:25:26.226Z,12.20
2019-04-29T00:27:54.920Z,12.10
2019-04-29T00:30:23.600Z,12.10
2019-04-29T00:32:52.234Z,11.90
2019-04-29T00:35:20.855Z,11.70
2019-04-29T00:37:54.262Z,11.70
2019-04-29T00:40:33.355Z,11.80
2019-04-29T00:43:03.553Z,11.90
2019-04-29T00:45:32.302Z,11.80
2019-04-29T00:48:00.921Z,11.80
2019-04-29T00:50:29.677Z,11.90
2019-04-29T00:52:58.262Z,12.00
2019-04-29T00:55:31.653Z,11.90
2019-04-29T00:58:00.139Z,11.90
2019-04-29T01:00:35.692Z,11.90
2019-04-29T01:03:04.582Z,11.70
2019-04-29T01:05:33.297Z,11.70
2019-04-29T01:08:02.144Z,11.70
2019-04-29T01:10:30.900Z,11.80
2019-04-29T01:12:59.502Z,11.80
2019-04-29T01:15:28.247Z,11.90
2019-04-29T01:17:56.824Z,11.80
2019-04-29T01:20:25.408Z,11.70
2019-04-29T01:22:54.851Z,11.70
2019-04-29T01:25:23.427Z,11.60
2019-04-29T01:27:53.618Z,11.60
2019-04-29T01:30:43.178Z,11.60
2019-04-29T01:33:11.729Z,11.50
2019-04-29T01:35:40.360Z,11.40
2019-04-29T01:38:09.031Z,11.40
2019-04-29T01:40:51.014Z,11.40
2019-04-29T01:43:19.722Z,11.40
2019-04-29T01:45:48.389Z,11.30
2019-04-29T01:48:17.047Z,11.20
2019-04-29T01:50:45.688Z,10.90
2019-04-29T01:53:14.259Z,10.90
2019-04-29T01:55:42.826Z,11.00
2019-04-29T01:58:11.326Z,10.90
2019-04-29T02:00:39.923Z,11.10
2019-04-29T02:03:08.594Z,11.30
2019-04-29T02:05:37.433Z,11.30
2019-04-29T02:08:06.020Z,11.40
2019-04-29T02:10:35.684Z,11.30
2019-04-29T02:13:04.498Z,11.30
2019-04-29T02:15:33.150Z,11.30
2019-04-29T02:18:01.778Z,11.30
2019-04-29T02:20:30.586Z,11.30
2019-04-29T02:23:03.238Z,11.10
2019-04-29T02:25:36.222Z,11.00
2019-04-29T02:28:04.863Z,10.80
2019-04-29T02:30:46.289Z,10.90
2019-04-29T02:33:14.967Z,11.00
2019-04-29T02:35:43.622Z,11.10
2019-04-29T02:38:30.083Z,11.10
2019-04-29T02:41:09.443Z,11.10
2019-04-29T02:43:39.699Z,11.00
2019-04-29T02:46:08.296Z,11.10
2019-04-29T02:48:36.879Z,11.10
2019-04-29T02:51:05.713Z,11.10
2019-04-29T02:53:34.275Z,11.10
2019-04-29T02:56:02.950Z,11.20
2019-04-29T02:58:33.323Z,11.30
2019-04-29T03:01:12.502Z,11.30
2019-04-29T03:03:42.747Z,11.10
2019-04-29T03:06:17.416Z,11.00
2019-04-29T03:08:46.067Z,11.00
2019-04-29T03:11:15.178Z,10.90
2019-04-29T03:13:44.226Z,11.10
2019-04-29T03:16:12.932Z,10.90
2019-04-29T03:18:43.645Z,11.00
2019-04-29T03:21:14.585Z,11.00
2019-04-29T03:23:43.115Z,11.10
2019-04-29T03:26:12.084Z,11.20
2019-04-29T03:28:40.723Z,11.20
2019-04-29T03:31:09.308Z,11.30
2019-04-29T03:33:37.999Z,11.30
2019-04-29T03:36:06.836Z,11.20
2019-04-29T03:38:35.550Z,11.20
2019-04-29T03:41:04.241Z,11.00
2019-04-29T03:43:32.899Z,10.90
2019-04-29T03:46:01.622Z,11.10
2019-04-29T03:48:30.245Z,11.20
2019-04-29T03:50:58.924Z,11.30
2019-04-29T03:53:28.513Z,11.20
2019-04-29T03:55:57.726Z,11.10
2019-04-29T03:58:26.498Z,11.10
2019-04-29T04:00:56.797Z,11.20
2019-04-29T04:03:27.083Z,11.20
2019-04-29T04:06:09.493Z,11.20
2019-04-29T04:08:45.486Z,11.20
2019-04-29T04:11:15.758Z,11.20
2019-04-29T04:13:44.327Z,11.20
2019-04-29T04:16:14.518Z,11.10
2019-04-29T04:18:43.371Z,11.00
2019-04-29T04:21:11.935Z,10.90
2019-04-29T04:23:40.501Z,11.00
2019-04-29T04:26:09.262Z,11.20
2019-04-29T04:28:37.878Z,11.00
2019-04-29T04:31:07.207Z,10.90
2019-04-29T04:33:36.160Z,11.10
2019-04-29T04:36:04.863Z,11.30
2019-04-29T04:38:33.519Z,11.40
2019-04-29T04:41:06.549Z,11.50
2019-04-29T04:43:35.152Z,11.50
2019-04-29T04:46:03.694Z,11.40
2019-04-29T04:48:32.279Z,11.40
2019-04-29T04:51:00.946Z,11.50
2019-04-29T04:53:29.579Z,11.30
2019-04-29T04:56:00.088Z,11.30
2019-04-29T04:58:28.822Z,11.30
2019-04-29T05:00:57.490Z,11.30
2019-04-29T05:03:26.079Z,11.10
2019-04-29T05:05:54.806Z,11.20
2019-04-29T05:08:23.461Z,11.10
2019-04-29T05:10:52.031Z,11.00
2019-04-29T05:13:28.367Z,11.00
2019-04-29T05:15:51.389Z,11.10
2019-04-29T05:18:20.016Z,11.10
2019-04-29T05:20:48.849Z,11.20
2019-04-29T05:23:17.487Z,11.40
2019-04-29T05:25:46.679Z,11.40
2019-04-29T05:28:15.507Z,11.50
2019-04-29T05:30:44.230Z,11.50
2019-04-29T05:33:14.583Z,11.40
2019-04-29T05:35:46.992Z,11.40
2019-04-29T05:38:17.318Z,11.50
2019-04-29T05:40:47.642Z,11.50
2019-04-29T05:43:27.001Z,11.60
2019-04-29T05:46:07.287Z,11.60
2019-04-29T05:48:35.271Z,11.50
2019-04-29T05:51:05.575Z,11.50
2019-04-29T05:53:35.929Z,11.50
2019-04-29T05:56:05.286Z,11.60
2019-04-29T05:58:42.642Z,11.60
2019-04-29T06:01:13.011Z,11.50
2019-04-29T06:03:44.283Z,11.40
2019-04-29T06:06:12.480Z,11.50
2019-04-29T06:08:41.228Z,11.50
2019-04-29T06:11:10.238Z,11.60
2019-04-29T06:13:39.339Z,11.60
2019-04-29T06:16:08.165Z,11.60
2019-04-29T06:18:42.648Z,11.80
2019-04-29T06:21:11.524Z,11.80
2019-04-29T06:23:40.364Z,11.70
2019-04-29T06:26:09.577Z,11.80
2019-04-29T06:28:43.595Z,11.90
2019-04-29T06:31:12.439Z,11.80
2019-04-29T06:33:41.073Z,11.90
2019-04-29T06:36:09.972Z,11.70
2019-04-29T06:38:38.547Z,11.70
2019-04-29T06:41:09.709Z,11.80
2019-04-29T06:43:37.515Z,11.90
2019-04-29T06:46:07.708Z,11.90
2019-04-29T06:48:39.852Z,11.90
2019-04-29T06:51:08.578Z,11.90
2019-04-29T06:53:37.159Z,11.90
2019-04-29T06:56:09.018Z,11.90
2019-04-29T06:58:38.365Z,11.90
2019-04-29T07:01:07.331Z,11.80
2019-04-29T07:03:36.084Z,11.90
2019-04-29T07:06:04.793Z,12.00
2019-04-29T07:08:33.436Z,12.00
2019-04-29T07:11:04.868Z,12.00
2019-04-29T07:13:35.575Z,12.10
2019-04-29T07:16:04.558Z,12.20
2019-04-29T07:18:33.397Z,12.20
2019-04-29T07:21:02.066Z,12.30
2019-04-29T07:23:30.983Z,12.20
2019-04-29T07:26:00.039Z,12.20
2019-04-29T07:28:28.708Z,12.20
2019-04-29T07:31:02.613Z,12.10
2019-04-29T07:33:28.107Z,12.20
2019-04-29T07:36:09.945Z,12.30
2019-04-29T07:38:40.694Z,12.40
2019-04-29T07:40:58.981Z,12.50
2019-04-29T07:43:28.550Z,12.60
2019-04-29T07:46:08.346Z,12.40
2019-04-29T07:48:42.062Z,12.50
2019-04-29T07:51:09.074Z,12.40
2019-04-29T07:53:45.002Z,12.50
2019-04-29T07:56:08.268Z,12.60
2019-04-29T07:58:36.923Z,12.70
2019-04-29T08:01:06.007Z,12.70
2019-04-29T08:03:34.690Z,12.80
2019-04-29T08:06:03.673Z,12.70
2019-04-29T08:08:33.163Z,12.80
2019-04-29T08:11:03.479Z,12.80
2019-04-29T08:13:34.085Z,12.80
2019-04-29T08:16:02.837Z,12.80
2019-04-29T08:18:31.660Z,13.00
2019-04-29T08:21:00.331Z,13.10
2019-04-29T08:23:33.091Z,13.20
2019-04-29T08:26:02.606Z,13.10
2019-04-29T08:28:31.606Z,13.10
2019-04-29T08:31:00.193Z,13.00
2019-04-29T08:33:28.886Z,13.00
2019-04-29T08:35:58.391Z,13.00
2019-04-29T08:38:27.081Z,13.10
2019-04-29T08:40:57.349Z,13.10
2019-04-29T08:43:27.626Z,13.30
2019-04-29T08:46:14.195Z,13.20
2019-04-29T08:48:45.799Z,13.30
2019-04-29T08:51:13.181Z,13.30
2019-04-29T08:53:42.067Z,13.40
2019-04-29T08:56:12.136Z,13.40
2019-04-29T08:58:44.293Z,13.30
2019-04-29T09:01:13.443Z,13.40
2019-04-29T09:03:43.712Z,13.50
2019-04-29T09:06:13.810Z,13.60
2019-04-29T09:08:54.051Z,13.70
2019-04-29T09:11:14.457Z,13.80
2019-04-29T09:13:48.330Z,13.80
2019-04-29T09:16:16.926Z,13.80
2019-04-29T09:18:46.276Z,13.90
2019-04-29T09:21:16.619Z,13.90
2019-04-29T09:23:45.794Z,13.90
2019-04-29T09:26:16.186Z,14.00
2019-04-29T09:28:44.932Z,14.10
2019-04-29T09:31:14.008Z,14.10
2019-04-29T09:33:48.522Z,14.20
2019-04-29T09:36:13.794Z,14.10
2019-04-29T09:38:43.781Z,14.10
2019-04-29T09:41:15.850Z,14.20
2019-04-29T09:44:05.598Z,14.20
2019-04-29T09:46:36.460Z,14.30
2019-04-29T09:49:06.564Z,14.30
2019-04-29T09:51:36.007Z,14.30
2019-04-29T09:54:05.196Z,14.30
2019-04-29T09:56:36.329Z,14.40
2019-04-29T09:59:24.229Z,14.50
2019-04-29T10:01:58.523Z,14.50
2019-04-29T10:04:29.085Z,14.50
2019-04-29T10:06:59.093Z,14.60
2019-04-29T10:09:28.986Z,14.60
2019-04-29T10:11:57.590Z,14.60
2019-04-29T10:14:28.370Z,14.60
2019-04-29T10:17:00.865Z,14.60
2019-04-29T10:19:34.165Z,14.70
2019-04-29T10:22:03.138Z,14.80
2019-04-29T10:24:35.101Z,14.90
2019-04-29T10:27:07.097Z,14.80
2019-04-29T10:29:34.350Z,14.80
2019-04-29T10:32:06.904Z,14.80
2019-04-29T10:34:35.071Z,14.90
2019-04-29T10:37:04.119Z,14.90
2019-04-29T10:39:42.483Z,14.80
2019-04-29T10:42:13.360Z,14.90
2019-04-29T10:44:52.498Z,14.80
2019-04-29T10:47:39.434Z,14.80
2019-04-29T10:50:17.123Z,14.90
2019-04-29T10:52:46.078Z,14.90
2019-04-29T10:55:16.717Z,14.90
2019-04-29T10:57:49.725Z,15.00
2019-04-29T11:01:07.998Z,15.00
2019-04-29T11:03:40.414Z,15.20
2019-04-29T11:06:09.260Z,15.20
2019-04-29T11:08:43.227Z,15.10
2019-04-29T11:11:22.723Z,15.20
2019-04-29T11:13:48.206Z,15.20
2019-04-29T11:16:15.355Z,15.20
2019-04-29T11:18:44.261Z,15.30
2019-04-29T11:21:12.957Z,15.30
2019-04-29T11:23:43.538Z,15.40
2019-04-29T11:26:14.596Z,15.40
2019-04-29T11:28:47.001Z,15.40
2019-04-29T11:31:19.096Z,15.50
2019-04-29T11:33:58.727Z,15.50
2019-04-29T11:36:29.287Z,15.60
2019-04-29T11:38:57.998Z,15.60
2019-04-29T11:41:34.395Z,15.60
2019-04-29T11:44:03.180Z,15.70
2019-04-29T11:46:32.041Z,15.70
2019-04-29T11:49:02.826Z,15.60
2019-04-29T11:51:49.316Z,15.60
2019-04-29T11:54:08.264Z,15.60
2019-04-29T11:56:39.844Z,15.60
2019-04-29T11:59:27.000Z,15.60
2019-04-29T12:02:13.811Z,15.70
2019-04-29T12:04:44.214Z,15.80
2019-04-29T12:07:13.002Z,15.80
2019-04-29T12:09:42.106Z,15.90
2019-04-29T12:12:13.194Z,15.90
2019-04-29T12:14:50.621Z,16.00
2019-04-29T12:17:20.933Z,16.00
2019-04-29T12:19:51.186Z,15.90
2019-04-29T12:22:30.015Z,15.90
2019-04-29T12:24:52.256Z,16.00
2019-04-29T12:27:21.768Z,16.00
2019-04-29T12:29:53.900Z,16.00
2019-04-29T12:32:32.942Z,16.00
2019-04-29T12:35:03.505Z,16.00
2019-04-29T12:37:36.766Z,16.00
2019-04-29T12:40:27.882Z,15.90
2019-04-29T12:43:00.810Z,15.90
2019-04-29T12:45:34.061Z,15.80
2019-04-29T12:48:24.913Z,15.90
2019-04-29T12:50:57.239Z,15.90
2019-04-29T12:53:24.391Z,16.00
2019-04-29T12:55:54.859Z,16.00
2019-04-29T12:58:25.622Z,16.00
2019-04-29T13:01:06.068Z,16.00
2019-04-29T13:03:39.415Z,16.00
2019-04-29T13:06:09.773Z,16.10
2019-04-29T13:08:41.154Z,16.10
2019-04-29T13:11:14.652Z,16.10
2019-04-29T13:13:41.733Z,16.10
2019-04-29T13:16:30.144Z,16.00
2019-04-29T13:19:11.380Z,16.10
2019-04-29T13:21:31.869Z,16.00
2019-04-29T13:24:13.460Z,16.10
2019-04-29T13:26:33.396Z,16.10
2019-04-29T13:29:01.763Z,16.20
2019-04-29T13:31:38.411Z,16.10
2019-04-29T13:34:14.647Z,16.20
2019-04-29T13:36:33.021Z,16.20
2019-04-29T13:39:03.826Z,16.20
2019-04-29T13:41:32.792Z,16.20
2019-04-29T13:44:07.230Z,16.30
2019-04-29T13:46:51.199Z,16.30
2019-04-29T13:49:19.071Z,16.30
2019-04-29T13:51:50.440Z,16.20
2019-04-29T13:54:19.169Z,16.20
2019-04-29T13:56:56.145Z,16.20
2019-04-29T13:59:19.899Z,16.20
2019-04-29T14:01:59.925Z,16.20
2019-04-29T14:04:24.809Z,16.30
2019-04-29T14:06:57.257Z,16.30
2019-04-29T14:09:23.898Z,16.30
2019-04-29T14:12:01.419Z,16.20
2019-04-29T14:14:24.452Z,16.10
2019-04-29T14:17:11.547Z,16.10
2019-04-29T14:19:40.350Z,16.10
2019-04-29T14:21:55.437Z,16.10
2019-04-29T14:24:25.379Z,15.90
2019-04-29T14:26:54.681Z,15.90
2019-04-29T14:29:36.485Z,15.80
2019-04-29T14:32:05.491Z,15.50
2019-04-29T14:34:46.052Z,15.30
2019-04-29T14:37:21.620Z,15.20
2019-04-29T14:39:45.251Z,15.00
2019-04-29T14:42:33.194Z,15.00
2019-04-29T14:45:07.841Z,15.00
2019-04-29T14:47:41.011Z,14.90
2019-04-29T14:50:15.596Z,15.00
2019-04-29T14:52:49.431Z,15.00
2019-04-29T14:55:19.894Z,14.90
2019-04-29T14:57:45.928Z,14.90
2019-04-29T15:00:19.858Z,15.00
2019-04-29T15:02:48.777Z,14.90
2019-04-29T15:05:19.610Z,14.90
2019-04-29T15:07:50.111Z,14.90
2019-04-29T15:10:19.684Z,14.90
2019-04-29T15:13:11.532Z,14.90
2019-04-29T15:16:03.356Z,14.90
2019-04-29T15:18:45.803Z,14.90
2019-04-29T15:21:10.891Z,15.00
2019-04-29T15:23:39.613Z,15.00
2019-04-29T15:26:08.312Z,14.90
2019-04-29T15:28:51.907Z,14.90
2019-04-29T15:31:22.544Z,15.00
2019-04-29T15:33:51.446Z,14.90
2019-04-29T15:36:20.859Z,15.10
2019-04-29T15:39:08.110Z,15.20
2019-04-29T15:41:20.301Z,15.10
2019-04-29T15:43:49.574Z,15.20
2019-04-29T15:46:18.398Z,15.20
2019-04-29T15:48:47.014Z,15.20
2019-04-29T15:51:15.681Z,15.20
2019-04-29T15:53:44.234Z,15.20
2019-04-29T15:56:28.351Z,15.10
2019-04-29T15:58:43.615Z,15.10
2019-04-29T16:01:17.360Z,15.00
2019-04-29T16:03:43.193Z,15.00
2019-04-29T16:06:34.026Z,15.00
2019-04-29T16:09:23.647Z,14.90
2019-04-29T16:12:05.063Z,14.90
2019-04-29T16:14:30.859Z,14.90
2019-04-29T16:16:59.607Z,14.90
2019-04-29T16:19:28.468Z,14.90
2019-04-29T16:21:58.691Z,15.00
2019-04-29T16:24:37.402Z,14.90
2019-04-29T16:27:01.278Z,14.80
2019-04-29T16:29:28.230Z,14.70
2019-04-29T16:32:02.179Z,14.60
2019-04-29T16:34:27.272Z,14.60
2019-04-29T16:37:19.391Z,14.50
2019-04-29T16:39:47.041Z,14.40
2019-04-29T16:42:17.342Z,14.40
2019-04-29T16:44:47.847Z,14.40
2019-04-29T16:47:17.718Z,14.40
2019-04-29T16:49:46.736Z,14.40
2019-04-29T16:52:15.469Z,14.40
2019-04-29T16:54:44.233Z,14.40
2019-04-29T16:57:14.100Z,14.30
2019-04-29T16:59:42.854Z,14.30
2019-04-29T17:02:19.218Z,14.30
2019-04-29T17:04:43.104Z,14.40
2019-04-29T17:07:13.657Z,14.30
2019-04-29T17:09:47.537Z,14.30
2019-04-29T17:12:16.313Z,14.30
2019-04-29T17:15:02.927Z,14.20
2019-04-29T17:17:16.674Z,14.30
2019-04-29T17:19:45.289Z,14.20
2019-04-29T17:22:25.429Z,14.30
2019-04-29T17:24:45.924Z,14.30
2019-04-29T17:27:18.962Z,14.30
2019-04-29T17:30:09.178Z,14.30
2019-04-29T17:32:49.609Z,14.20
2019-04-29T17:35:21.844Z,14.10
2019-04-29T17:37:50.377Z,14.00
2019-04-29T17:40:19.690Z,14.00
2019-04-29T17:42:50.042Z,14.00
2019-04-29T17:45:31.042Z,14.00
2019-04-29T17:48:13.273Z,14.00
2019-04-29T17:50:52.313Z,14.00
2019-04-29T17:53:22.557Z,13.90
2019-04-29T17:55:55.893Z,14.00
2019-04-29T17:58:26.222Z,14.00
2019-04-29T18:00:59.571Z,14.00
2019-04-29T18:03:34.841Z,14.00
2019-04-29T18:06:11.787Z,14.00
2019-04-29T18:08:42.110Z,14.00
2019-04-29T18:11:10.873Z,13.90
2019-04-29T18:13:39.541Z,13.90
2019-04-29T18:16:17.825Z,13.90
2019-04-29T18:18:53.501Z,13.90
2019-04-29T18:21:20.148Z,13.90
2019-04-29T18:24:02.958Z,13.80
2019-04-29T18:26:37.052Z,13.80
2019-04-29T18:29:07.998Z,13.80
2019-04-29T18:31:36.879Z,13.80
2019-04-29T18:34:07.180Z,13.70
2019-04-29T18:36:35.896Z,13.60
2019-04-29T18:39:08.673Z,13.70
2019-04-29T18:41:37.568Z,13.80
2019-04-29T18:44:07.939Z,13.80
2019-04-29T18:46:36.894Z,13.90
2019-04-29T18:49:07.202Z,13.90
2019-04-29T18:51:37.342Z,13.80
2019-04-29T18:54:07.255Z,13.70
2019-04-29T18:56:37.845Z,13.60
2019-04-29T18:59:06.916Z,13.60
2019-04-29T19:01:37.207Z,13.60
2019-04-29T19:04:16.777Z,13.60
2019-04-29T19:06:44.370Z,13.50
2019-04-29T19:09:19.873Z,13.40
2019-04-29T19:11:46.291Z,13.40
2019-04-29T19:14:16.450Z,13.40
2019-04-29T19:17:05.023Z,13.30
2019-04-29T19:19:37.039Z,13.20
2019-04-29T19:22:07.770Z,13.10
2019-04-29T19:24:36.354Z,13.10
2019-04-29T19:27:09.453Z,13.10
2019-04-29T19:29:38.844Z,13.00
2019-04-29T19:32:06.123Z,13.10
2019-04-29T19:34:42.792Z,13.10
2019-04-29T19:37:08.058Z,13.10
2019-04-29T19:39:36.967Z,13.00
2019-04-29T19:42:05.835Z,13.10
2019-04-29T19:44:36.698Z,13.10
2019-04-29T19:47:10.954Z,13.10
2019-04-29T19:49:44.574Z,13.10
2019-04-29T19:52:10.634Z,13.00
2019-04-29T19:54:39.404Z,13.00
2019-04-29T19:57:08.070Z,13.00
2019-04-29T19:59:37.293Z,13.10
2019-04-29T20:02:10.273Z,13.10
2019-04-29T20:04:58.883Z,13.10
2019-04-29T20:07:27.560Z,13.10
2019-04-29T20:10:03.851Z,13.00
2019-04-29T20:12:27.469Z,13.00
2019-04-29T20:14:59.711Z,13.10
2019-04-29T20:17:37.018Z,13.10
2019-04-29T20:20:09.288Z,13.20
2019-04-29T20:22:43.498Z,13.10
2019-04-29T20:25:08.802Z,13.00
2019-04-29T20:27:37.978Z,13.10
2019-04-29T20:30:16.410Z,13.10
2019-04-29T20:32:38.845Z,13.10
2019-04-29T20:35:08.853Z,13.10
2019-04-29T20:37:37.885Z,13.10
2019-04-29T20:40:09.537Z,13.10
2019-04-29T20:42:40.469Z,13.10
2019-04-29T20:45:09.276Z,13.10
2019-04-29T20:47:41.777Z,13.10
2019-04-29T20:50:13.912Z,13.10
2019-04-29T20:52:47.386Z,13.10
2019-04-29T20:55:16.610Z,13.00
2019-04-29T20:57:47.952Z,13.00
2019-04-29T21:00:20.266Z,12.90
2019-04-29T21:02:49.032Z,12.90
2019-04-29T21:05:23.152Z,12.80
2019-04-29T21:07:49.195Z,12.80
2019-04-29T21:10:18.714Z,12.80
2019-04-29T21:13:08.916Z,12.80
2019-04-29T21:15:51.785Z,12.70
2019-04-29T21:18:15.929Z,12.70
2019-04-29T21:20:45.182Z,12.70
2019-04-29T21:23:16.282Z,12.80
2019-04-29T21:25:45.781Z,12.80
2019-04-29T21:28:14.626Z,12.70
2019-04-29T21:30:45.135Z,12.60
2019-04-29T21:33:21.012Z,12.60
2019-04-29T21:35:57.889Z,12.70
2019-04-29T21:38:45.449Z,12.80
2019-04-29T21:41:22.547Z,12.70
2019-04-29T21:43:53.572Z,12.70
2019-04-29T21:46:25.872Z,12.80
2019-04-29T21:48:53.456Z,12.70
2019-04-29T21:51:22.062Z,12.80
2019-04-29T21:53:50.594Z,12.90
2019-04-29T21:56:19.394Z,12.90
2019-04-29T21:58:48.122Z,13.00
2019-04-29T22:01:17.562Z,13.00
2019-04-29T22:04:05.659Z,12.90
2019-04-29T22:06:34.343Z,13.00
2019-04-29T22:09:08.758Z,13.00
2019-04-29T22:11:43.085Z,12.90
2019-04-29T22:14:09.891Z,12.90
2019-04-29T22:16:38.398Z,12.90
2019-04-29T22:19:07.238Z,12.90
2019-04-29T22:21:36.144Z,12.90
2019-04-29T22:24:06.358Z,13.00
2019-04-29T22:26:35.203Z,12.80
2019-04-29T22:29:03.876Z,12.90
2019-04-29T22:31:34.164Z,12.90
2019-04-29T22:34:05.504Z,13.00
2019-04-29T22:36:35.891Z,12.80
2019-04-29T22:39:06.199Z,12.80
2019-04-29T22:41:54.195Z,12.70
2019-04-29T22:44:23.314Z,12.80
2019-04-29T22:46:51.950Z,12.80
2019-04-29T22:49:25.206Z,12.90
2019-04-29T22:51:55.833Z,12.90
2019-04-29T22:54:22.030Z,12.90
2019-04-29T22:56:53.884Z,12.90
2019-04-29T22:59:21.808Z,13.00
2019-04-29T23:01:50.747Z,13.00
2019-04-29T23:04:19.541Z,13.00
2019-04-29T23:06:48.222Z,13.00
2019-04-29T23:09:16.945Z,13.00
2019-04-29T23:12:05.458Z,12.90
2019-04-29T23:14:36.105Z,13.00
2019-04-29T23:17:06.129Z,13.00
2019-04-29T23:19:35.762Z,13.00
2019-04-29T23:22:22.027Z,13.00
2019-04-29T23:24:56.406Z,13.10
2019-04-29T23:27:25.887Z,13.00
2019-04-29T23:29:59.756Z,12.90
2019-04-29T23:32:28.517Z,12.90
2019-04-29T23:35:01.693Z,12.80
2019-04-29T23:37:29.355Z,12.80
2019-04-29T23:39:57.877Z,12.80
2019-04-29T23:42:26.438Z,12.80
2019-04-29T23:45:20.760Z,12.90
2019-04-29T23:47:48.077Z,13.00
2019-04-29T23:50:18.737Z,13.00
2019-04-29T23:52:47.912Z,13.00
2019-04-29T23:55:16.124Z,13.10
2019-04-29T23:57:47.877Z,13.00
